createdAt,value
2022-12-13T00:01:50.212Z,-9.50
2022-12-13T00:04:17.998Z,-9.60
2022-12-13T00:06:44.930Z,-9.60
2022-12-13T00:09:15.045Z,-9.70
2022-12-13T00:11:42.369Z,-9.60
2022-12-13T00:14:09.212Z,-9.60
2022-12-13T00:16:36.801Z,-9.60
2022-12-13T00:19:03.647Z,-9.60
2022-12-13T00:21:33.220Z,-9.60
2022-12-13T00:24:05.143Z,-9.70
2022-12-13T00:26:35.481Z,-9.60
2022-12-13T00:29:05.345Z,-9.60
2022-12-13T00:34:20.457Z,-9.70
2022-12-13T00:36:48.218Z,-9.60
2022-12-13T00:39:16.651Z,-9.60
2022-12-13T00:41:44.750Z,-9.60
2022-12-13T00:44:14.884Z,-9.60
2022-12-13T00:46:42.578Z,-9.60
2022-12-13T00:49:10.686Z,-9.50
2022-12-13T00:51:37.418Z,-9.40
2022-12-13T00:54:04.229Z,-9.50
2022-12-13T00:56:34.927Z,-9.40
2022-12-13T00:59:02.854Z,-9.40
2022-12-13T01:01:34.544Z,-9.40
2022-12-13T01:04:05.374Z,-9.40
2022-12-13T01:06:46.740Z,-9.40
2022-12-13T01:09:20.252Z,-9.30
2022-12-13T01:11:48.409Z,-9.40
2022-12-13T01:14:16.808Z,-9.40
2022-12-13T01:16:43.961Z,-9.40
2022-12-13T01:19:10.859Z,-9.40
2022-12-13T01:21:42.637Z,-9.30
2022-12-13T01:24:09.821Z,-9.30
2022-12-13T01:26:36.730Z,-9.30
2022-12-13T01:29:05.601Z,-9.20
2022-12-13T01:31:34.047Z,-9.20
2022-12-13T01:34:01.028Z,-9.10
2022-12-13T01:36:32.600Z,-9.10
2022-12-13T01:39:14.704Z,-9.10
2022-12-13T01:41:43.003Z,-9.10
2022-12-13T01:44:50.145Z,-9.10
2022-12-13T01:47:22.550Z,-9.10
2022-12-13T01:49:50.198Z,-9.10
2022-12-13T01:52:17.327Z,-9.10
2022-12-13T01:54:49.038Z,-9.10
2022-12-13T01:57:18.953Z,-9.10
2022-12-13T01:59:47.267Z,-9.10
2022-12-13T02:02:15.192Z,-9.10
2022-12-13T02:04:54.888Z,-9.20
2022-12-13T02:07:27.995Z,-9.20
2022-12-13T02:09:58.914Z,-9.20
2022-12-13T02:12:32.633Z,-9.20
2022-12-13T02:15:02.664Z,-9.20
2022-12-13T02:17:56.873Z,-9.30
2022-12-13T02:20:51.214Z,-9.20
2022-12-13T02:23:42.369Z,-9.40
2022-12-13T02:26:23.815Z,-9.20
2022-12-13T02:29:30.778Z,-9.30
2022-12-13T02:32:21.602Z,-9.40
2022-12-13T02:35:11.116Z,-9.40
2022-12-13T02:37:44.012Z,-9.40
2022-12-13T02:40:34.633Z,-9.40
2022-12-13T02:43:33.872Z,-9.40
2022-12-13T02:46:03.060Z,-9.50
2022-12-13T02:48:36.584Z,-9.60
2022-12-13T02:51:09.463Z,-9.60
2022-12-13T02:53:38.384Z,-9.60
2022-12-13T02:56:07.856Z,-9.60
2022-12-13T02:58:40.737Z,-9.70
2022-12-13T03:01:29.208Z,-9.70
2022-12-13T03:04:09.199Z,-9.70
2022-12-13T03:07:01.011Z,-9.60
2022-12-13T03:09:43.950Z,-9.60
2022-12-13T03:12:29.442Z,-9.70
2022-12-13T03:15:24.542Z,-9.70
2022-12-13T03:17:59.884Z,-9.80
2022-12-13T03:20:29.282Z,-9.80
2022-12-13T03:22:59.058Z,-9.70
2022-12-13T03:25:31.389Z,-9.60
2022-12-13T03:28:02.970Z,-9.70
2022-12-13T03:30:32.230Z,-9.60
2022-12-13T03:33:02.028Z,-9.70
2022-12-13T03:35:35.026Z,-9.70
2022-12-13T03:38:21.535Z,-9.80
2022-12-13T03:40:57.078Z,-9.70
2022-12-13T03:43:24.354Z,-9.80
2022-12-13T03:45:52.448Z,-9.90
2022-12-13T03:48:22.773Z,-9.90
2022-12-13T03:50:56.512Z,-9.90
2022-12-13T03:53:32.458Z,-9.90
2022-12-13T03:56:02.719Z,-10.00
2022-12-13T03:58:35.827Z,-10.00
2022-12-13T04:01:06.468Z,-10.00
2022-12-13T04:03:34.074Z,-10.00
2022-12-13T04:06:00.953Z,-10.00
2022-12-13T04:08:31.103Z,-9.90
2022-12-13T04:10:57.963Z,-9.90
2022-12-13T04:13:33.816Z,-9.90
2022-12-13T04:16:02.545Z,-10.00
2022-12-13T04:18:29.827Z,-10.00
2022-12-13T04:20:57.762Z,-10.10
2022-12-13T04:23:25.140Z,-10.10
2022-12-13T04:25:52.038Z,-10.20
2022-12-13T04:28:21.628Z,-10.20
2022-12-13T04:30:52.974Z,-10.20
2022-12-13T04:33:24.413Z,-10.20
2022-12-13T04:35:51.961Z,-10.30
2022-12-13T04:38:19.147Z,-10.30
2022-12-13T04:40:46.368Z,-10.30
2022-12-13T04:43:13.328Z,-10.40
2022-12-13T04:45:40.273Z,-10.30
2022-12-13T04:48:08.167Z,-10.40
2022-12-13T04:50:35.252Z,-10.50
2022-12-13T04:53:05.140Z,-10.40
2022-12-13T04:55:35.154Z,-10.50
2022-12-13T04:58:02.920Z,-10.50
2022-12-13T05:00:29.614Z,-10.50
2022-12-13T05:02:57.985Z,-10.50
2022-12-13T05:05:24.874Z,-10.60
2022-12-13T05:07:57.377Z,-10.60
2022-12-13T05:10:34.006Z,-10.60
2022-12-13T05:13:04.990Z,-10.60
2022-12-13T05:15:32.424Z,-10.70
2022-12-13T05:18:10.172Z,-10.70
2022-12-13T05:20:39.599Z,-10.80
2022-12-13T05:23:06.438Z,-10.70
2022-12-13T05:25:36.802Z,-10.80
2022-12-13T05:28:26.927Z,-10.80
2022-12-13T05:30:55.257Z,-10.70
2022-12-13T05:33:26.229Z,-10.70
2022-12-13T05:35:59.955Z,-10.70
2022-12-13T05:38:32.302Z,-10.70
2022-12-13T05:40:59.312Z,-10.70
2022-12-13T05:43:42.428Z,-10.70
2022-12-13T05:46:13.499Z,-10.80
2022-12-13T05:48:42.837Z,-10.80
2022-12-13T05:51:13.068Z,-10.90
2022-12-13T05:53:45.269Z,-10.90
2022-12-13T05:56:22.550Z,-10.90
2022-12-13T05:58:53.648Z,-10.90
2022-12-13T06:01:21.951Z,-10.90
2022-12-13T06:03:48.788Z,-11.00
2022-12-13T06:06:18.060Z,-10.90
2022-12-13T06:08:45.069Z,-10.80
2022-12-13T06:11:12.475Z,-10.90
2022-12-13T06:14:00.718Z,-10.90
2022-12-13T06:16:28.138Z,-10.90
2022-12-13T06:19:03.785Z,-11.00
2022-12-13T06:21:44.158Z,-10.90
2022-12-13T06:24:14.720Z,-10.90
2022-12-13T06:26:41.766Z,-10.90
2022-12-13T06:29:08.610Z,-10.90
2022-12-13T06:31:35.924Z,-10.90
2022-12-13T06:34:13.706Z,-10.90
2022-12-13T06:36:42.468Z,-10.80
2022-12-13T06:39:09.226Z,-10.80
2022-12-13T06:41:39.243Z,-10.80
2022-12-13T06:44:12.578Z,-10.80
2022-12-13T06:46:43.301Z,-10.80
2022-12-13T06:49:10.395Z,-10.80
2022-12-13T06:51:39.634Z,-10.90
2022-12-13T06:54:07.653Z,-10.90
2022-12-13T06:56:34.837Z,-10.80
2022-12-13T06:59:07.534Z,-10.80
2022-12-13T07:01:37.744Z,-10.90
2022-12-13T07:04:30.110Z,-11.00
2022-12-13T07:06:53.191Z,-11.10
2022-12-13T07:09:20.172Z,-11.00
2022-12-13T07:11:51.907Z,-11.00
2022-12-13T07:14:22.175Z,-11.00
2022-12-13T07:16:51.668Z,-11.00
2022-12-13T07:19:24.050Z,-11.10
2022-12-13T07:21:52.048Z,-11.00
2022-12-13T07:24:19.139Z,-11.00
2022-12-13T07:26:45.904Z,-11.00
2022-12-13T07:29:22.586Z,-11.10
2022-12-13T07:31:50.182Z,-11.00
2022-12-13T07:34:17.479Z,-11.00
2022-12-13T07:36:44.189Z,-11.10
2022-12-13T07:39:11.077Z,-11.10
2022-12-13T07:41:40.052Z,-11.20
2022-12-13T07:44:07.547Z,-11.20
2022-12-13T07:46:34.792Z,-11.10
2022-12-13T07:49:03.218Z,-11.10
2022-12-13T07:51:29.992Z,-11.00
2022-12-13T07:53:57.583Z,-11.00
2022-12-13T07:56:24.600Z,-11.00
2022-12-13T07:58:51.450Z,-11.00
2022-12-13T08:01:18.612Z,-11.00
2022-12-13T08:03:48.123Z,-10.90
2022-12-13T08:06:15.338Z,-10.80
2022-12-13T08:08:44.449Z,-10.80
2022-12-13T08:11:13.811Z,-10.70
2022-12-13T08:13:42.194Z,-10.80
2022-12-13T08:16:27.428Z,-10.80
2022-12-13T08:19:03.087Z,-10.80
2022-12-13T08:24:32.674Z,-10.80
2022-12-13T08:27:02.793Z,-10.80
2022-12-13T08:29:33.952Z,-10.80
2022-12-13T08:32:08.933Z,-10.80
2022-12-13T08:34:36.334Z,-10.80
2022-12-13T08:37:04.365Z,-10.70
2022-12-13T08:39:35.247Z,-10.70
2022-12-13T08:42:15.008Z,-10.60
2022-12-13T08:44:50.692Z,-10.60
2022-12-13T08:47:22.636Z,-10.50
2022-12-13T08:49:56.040Z,-10.50
2022-12-13T08:52:31.363Z,-10.40
2022-12-13T08:54:58.213Z,-10.40
2022-12-13T08:57:25.268Z,-10.40
2022-12-13T08:59:54.034Z,-10.40
2022-12-13T09:02:21.234Z,-10.30
2022-12-13T09:04:48.002Z,-10.30
2022-12-13T09:07:17.265Z,-10.10
2022-12-13T09:09:44.163Z,-10.10
2022-12-13T09:12:30.584Z,-10.00
2022-12-13T09:15:00.895Z,-9.80
2022-12-13T09:17:36.887Z,-9.80
2022-12-13T09:20:07.686Z,-9.70
2022-12-13T09:23:01.613Z,-9.70
2022-12-13T09:25:36.521Z,-9.60
2022-12-13T09:28:07.306Z,-9.70
2022-12-13T09:30:35.243Z,-9.70
2022-12-13T09:33:28.251Z,-9.60
2022-12-13T09:35:55.977Z,-9.70
2022-12-13T09:38:22.967Z,-9.60
2022-12-13T09:40:58.650Z,-9.50
2022-12-13T09:43:33.076Z,-9.30
2022-12-13T09:46:13.395Z,-9.20
2022-12-13T09:49:01.591Z,-9.30
2022-12-13T09:51:44.101Z,-9.20
2022-12-13T09:54:20.694Z,-9.10
2022-12-13T09:56:51.028Z,-9.00
2022-12-13T09:59:31.247Z,-8.90
2022-12-13T10:02:12.427Z,-8.80
2022-12-13T10:04:39.475Z,-8.80
2022-12-13T10:07:20.247Z,-8.70
2022-12-13T10:09:48.234Z,-8.60
2022-12-13T10:12:17.562Z,-8.60
2022-12-13T10:14:59.630Z,-8.40
2022-12-13T10:17:38.273Z,-8.30
2022-12-13T10:20:08.706Z,-8.20
2022-12-13T10:22:35.628Z,-8.10
2022-12-13T10:25:05.897Z,-8.10
2022-12-13T10:27:42.721Z,-8.10
2022-12-13T10:30:24.542Z,-8.20
2022-12-13T10:33:01.157Z,-8.00
2022-12-13T10:35:34.666Z,-7.90
2022-12-13T10:38:22.797Z,-7.80
2022-12-13T10:41:05.684Z,-7.60
2022-12-13T10:43:36.008Z,-7.60
2022-12-13T10:46:05.320Z,-7.60
2022-12-13T10:48:52.299Z,-7.30
2022-12-13T10:51:21.450Z,-7.20
2022-12-13T10:53:58.036Z,-6.90
2022-12-13T10:56:36.855Z,-6.50
2022-12-13T10:59:26.596Z,-6.30
2022-12-13T11:01:54.394Z,-6.10
2022-12-13T11:04:28.482Z,-5.90
2022-12-13T11:06:57.359Z,-5.70
2022-12-13T11:09:26.535Z,-5.50
2022-12-13T11:11:59.096Z,-5.30
2022-12-13T11:14:35.597Z,-5.00
2022-12-13T11:17:15.170Z,-4.90
2022-12-13T11:19:48.924Z,-4.80
2022-12-13T11:22:26.372Z,-4.50
2022-12-13T11:25:09.399Z,-4.30
2022-12-13T11:28:26.539Z,-3.90
2022-12-13T11:31:19.031Z,-3.80
2022-12-13T11:34:13.804Z,-3.40
2022-12-13T11:36:53.965Z,-3.40
2022-12-13T11:39:35.947Z,-3.20
2022-12-13T11:42:31.251Z,-2.60
2022-12-13T11:45:27.788Z,-2.30
2022-12-13T11:48:10.299Z,-1.90
2022-12-13T11:50:47.944Z,-1.40
2022-12-13T11:53:35.568Z,-1.40
2022-12-13T11:56:05.549Z,-1.60
2022-12-13T12:01:43.641Z,-1.70
2022-12-13T12:04:39.786Z,-2.20
2022-12-13T12:07:34.375Z,-3.00
2022-12-13T12:10:34.881Z,-3.40
2022-12-13T12:13:28.524Z,-4.00
2022-12-13T12:16:10.779Z,-4.40
2022-12-13T12:18:37.958Z,-4.90
2022-12-13T12:21:42.717Z,-5.10
2022-12-13T12:24:43.683Z,-5.30
2022-12-13T12:27:37.648Z,-5.50
2022-12-13T12:30:09.601Z,-5.70
2022-12-13T12:33:01.493Z,-5.80
2022-12-13T12:35:46.053Z,-5.90
2022-12-13T12:38:41.111Z,-6.00
2022-12-13T12:41:25.964Z,-6.00
2022-12-13T12:44:10.708Z,-6.00
2022-12-13T12:47:18.922Z,-6.00
2022-12-13T12:50:14.365Z,-6.10
2022-12-13T12:52:55.703Z,-6.10
2022-12-13T12:55:34.609Z,-6.10
2022-12-13T12:58:15.590Z,-6.00
2022-12-13T13:01:18.439Z,-6.10
2022-12-13T13:03:47.517Z,-6.00
2022-12-13T13:06:22.929Z,-6.00
2022-12-13T13:08:55.648Z,-6.00
2022-12-13T13:11:29.841Z,-6.00
2022-12-13T13:14:19.801Z,-6.10
2022-12-13T13:16:47.280Z,-6.20
2022-12-13T13:19:14.023Z,-6.20
2022-12-13T13:21:49.222Z,-6.30
2022-12-13T13:24:19.258Z,-6.30
2022-12-13T13:26:51.955Z,-6.50
2022-12-13T13:29:27.020Z,-6.50
2022-12-13T13:32:28.784Z,-6.60
2022-12-13T13:35:35.984Z,-6.60
2022-12-13T13:38:47.628Z,-6.60
2022-12-13T13:41:40.704Z,-6.60
2022-12-13T13:44:45.949Z,-6.60
2022-12-13T13:47:17.577Z,-6.60
2022-12-13T13:50:02.047Z,-6.60
2022-12-13T13:52:44.264Z,-6.60
2022-12-13T13:55:20.062Z,-6.60
2022-12-13T13:58:09.351Z,-6.60
2022-12-13T14:01:04.651Z,-6.70
2022-12-13T14:03:43.194Z,-6.60
2022-12-13T14:07:01.043Z,-6.60
2022-12-13T14:09:48.176Z,-6.60
2022-12-13T14:12:52.689Z,-6.70
2022-12-13T14:15:39.515Z,-6.80
2022-12-13T14:18:44.618Z,-6.90
2022-12-13T14:21:39.232Z,-6.90
2022-12-13T14:24:39.714Z,-6.90
2022-12-13T14:27:11.797Z,-6.90
2022-12-13T14:29:48.506Z,-6.90
2022-12-13T14:32:29.041Z,-6.90
2022-12-13T14:34:59.630Z,-6.90
2022-12-13T14:38:01.190Z,-6.90
2022-12-13T14:40:30.917Z,-6.90
2022-12-13T14:42:58.862Z,-7.00
2022-12-13T14:45:32.478Z,-7.00
2022-12-13T14:48:06.796Z,-7.10
2022-12-13T14:50:36.932Z,-7.10
2022-12-13T14:53:07.609Z,-7.00
2022-12-13T14:55:37.604Z,-7.10
2022-12-13T14:58:17.096Z,-7.10
2022-12-13T15:00:45.821Z,-7.10
2022-12-13T15:03:25.781Z,-7.30
2022-12-13T15:05:56.263Z,-7.30
2022-12-13T15:08:24.032Z,-7.30
2022-12-13T15:10:54.721Z,-7.40
2022-12-13T15:13:41.680Z,-7.40
2022-12-13T15:16:31.254Z,-7.50
2022-12-13T15:19:10.718Z,-7.60
2022-12-13T15:21:38.379Z,-7.70
2022-12-13T15:24:14.556Z,-7.70
2022-12-13T15:26:43.192Z,-7.80
2022-12-13T15:29:23.092Z,-7.70
2022-12-13T15:31:50.063Z,-7.80
2022-12-13T15:34:30.598Z,-7.80
2022-12-13T15:37:05.451Z,-7.90
2022-12-13T15:39:38.396Z,-7.80
2022-12-13T15:42:12.723Z,-8.00
2022-12-13T15:44:47.988Z,-8.00
2022-12-13T15:47:28.118Z,-8.00
2022-12-13T15:49:58.856Z,-8.00
2022-12-13T15:52:25.607Z,-7.90
2022-12-13T15:55:05.752Z,-8.00
2022-12-13T15:57:35.341Z,-7.90
2022-12-13T16:00:17.120Z,-7.90
2022-12-13T16:02:56.510Z,-8.00
2022-12-13T16:05:26.021Z,-8.00
2022-12-13T16:07:56.683Z,-8.00
2022-12-13T16:10:24.999Z,-7.90
2022-12-13T16:12:59.054Z,-8.00
2022-12-13T16:15:31.475Z,-8.00
2022-12-13T16:18:29.028Z,-8.00
2022-12-13T16:20:57.624Z,-8.00
2022-12-13T16:23:27.068Z,-8.20
2022-12-13T16:25:54.867Z,-8.10
2022-12-13T16:28:25.988Z,-8.10
2022-12-13T16:30:53.620Z,-8.10
2022-12-13T16:33:27.360Z,-8.10
2022-12-13T16:35:57.358Z,-8.20
2022-12-13T16:38:25.932Z,-8.20
2022-12-13T16:40:55.454Z,-8.30
2022-12-13T16:43:32.818Z,-8.30
2022-12-13T16:47:13.709Z,-8.30
2022-12-13T16:48:51.707Z,-8.30
2022-12-13T16:51:18.886Z,-8.30
2022-12-13T16:53:46.249Z,-8.30
2022-12-13T16:56:16.479Z,-8.40
2022-12-13T16:58:49.735Z,-8.50
2022-12-13T17:01:20.042Z,-8.50
2022-12-13T17:03:48.103Z,-8.60
2022-12-13T17:06:21.522Z,-8.70
2022-12-13T17:08:50.666Z,-8.70
2022-12-13T17:11:20.545Z,-8.80
2022-12-13T17:13:49.417Z,-8.80
2022-12-13T17:16:16.756Z,-8.70
2022-12-13T17:18:43.492Z,-8.70
2022-12-13T17:21:10.933Z,-8.80
2022-12-13T17:23:37.848Z,-8.90
2022-12-13T17:26:06.875Z,-8.80
2022-12-13T17:28:34.808Z,-8.80
2022-12-13T17:31:11.835Z,-8.90
2022-12-13T17:33:42.330Z,-8.80
2022-12-13T17:36:11.543Z,-8.70
2022-12-13T17:38:43.833Z,-8.60
2022-12-13T17:41:15.478Z,-8.80
2022-12-13T17:43:43.378Z,-8.70
2022-12-13T17:46:13.305Z,-8.70
2022-12-13T17:48:41.354Z,-8.70
2022-12-13T17:51:13.336Z,-8.60
2022-12-13T17:53:44.091Z,-8.60
2022-12-13T17:56:13.641Z,-8.70
2022-12-13T17:58:40.409Z,-8.70
2022-12-13T18:01:21.230Z,-8.80
2022-12-13T18:03:51.291Z,-8.80
2022-12-13T18:06:20.392Z,-8.90
2022-12-13T18:08:47.712Z,-9.00
2022-12-13T18:11:33.611Z,-9.10
2022-12-13T18:14:07.594Z,-9.00
2022-12-13T18:16:37.978Z,-9.10
2022-12-13T18:19:07.746Z,-9.00
2022-12-13T18:21:36.745Z,-9.00
2022-12-13T18:24:06.764Z,-9.00
2022-12-13T18:26:39.228Z,-9.00
2022-12-13T18:29:06.963Z,-9.00
2022-12-13T18:31:34.377Z,-9.00
2022-12-13T18:34:02.107Z,-9.00
2022-12-13T18:36:29.871Z,-9.20
2022-12-13T18:38:56.939Z,-9.20
2022-12-13T18:41:29.186Z,-9.20
2022-12-13T18:43:59.406Z,-9.10
2022-12-13T18:46:28.035Z,-9.20
2022-12-13T18:48:54.944Z,-9.20
2022-12-13T18:51:21.679Z,-9.10
2022-12-13T18:53:48.766Z,-9.10
2022-12-13T18:56:19.181Z,-9.00
2022-12-13T18:58:50.255Z,-9.10
2022-12-13T19:01:22.842Z,-9.00
2022-12-13T19:03:52.493Z,-9.20
2022-12-13T19:06:24.874Z,-9.30
2022-12-13T19:08:55.635Z,-9.40
2022-12-13T19:11:23.808Z,-9.50
2022-12-13T19:13:50.644Z,-9.40
2022-12-13T19:16:20.510Z,-9.30
2022-12-13T19:18:48.659Z,-9.30
2022-12-13T19:21:17.941Z,-9.40
2022-12-13T19:23:49.556Z,-9.30
2022-12-13T19:26:21.606Z,-9.30
2022-12-13T19:28:48.602Z,-9.30
2022-12-13T19:31:15.905Z,-9.30
2022-12-13T19:33:43.415Z,-9.20
2022-12-13T19:36:11.603Z,-9.10
2022-12-13T19:38:39.631Z,-9.20
2022-12-13T19:41:10.546Z,-9.20
2022-12-13T19:43:37.532Z,-9.20
2022-12-13T19:46:05.123Z,-9.30
2022-12-13T19:48:33.227Z,-9.30
2022-12-13T19:51:05.266Z,-9.50
2022-12-13T19:53:38.190Z,-9.40
2022-12-13T19:56:17.370Z,-9.40
2022-12-13T19:58:45.694Z,-9.40
2022-12-13T20:01:12.903Z,-9.30
2022-12-13T20:03:41.985Z,-9.30
2022-12-13T20:06:10.534Z,-9.20
2022-12-13T20:08:37.690Z,-9.10
2022-12-13T20:11:13.040Z,-9.00
2022-12-13T20:13:42.680Z,-8.90
2022-12-13T20:16:18.465Z,-9.00
2022-12-13T20:18:45.984Z,-8.80
2022-12-13T20:21:14.832Z,-8.80
2022-12-13T20:26:35.129Z,-8.70
2022-12-13T20:27:23.410Z,-8.80
2022-12-13T20:29:05.723Z,-8.70
2022-12-13T20:31:37.305Z,-8.70
2022-12-13T20:34:14.060Z,-8.60
2022-12-13T20:36:42.048Z,-8.70
2022-12-13T20:39:11.145Z,-8.60
2022-12-13T20:41:42.610Z,-8.60
2022-12-13T20:44:12.013Z,-8.70
2022-12-13T20:46:39.630Z,-8.70
2022-12-13T20:49:08.805Z,-8.70
2022-12-13T20:51:41.997Z,-8.60
2022-12-13T20:54:13.914Z,-8.60
2022-12-13T20:56:41.062Z,-8.50
2022-12-13T20:59:12.478Z,-8.50
2022-12-13T21:01:49.059Z,-8.50
2022-12-13T21:04:18.015Z,-8.50
2022-12-13T21:06:49.662Z,-8.50
2022-12-13T21:09:16.903Z,-8.50
2022-12-13T21:11:52.398Z,-8.50
2022-12-13T21:14:28.441Z,-8.50
2022-12-13T21:16:58.827Z,-8.50
2022-12-13T21:19:40.325Z,-8.50
2022-12-13T21:22:10.245Z,-8.50
2022-12-13T21:24:54.481Z,-8.50
2022-12-13T21:27:24.762Z,-8.50
2022-12-13T21:29:52.925Z,-8.50
2022-12-13T21:32:26.481Z,-8.50
2022-12-13T21:34:53.995Z,-8.50
2022-12-13T21:37:25.376Z,-8.50
2022-12-13T21:39:54.363Z,-8.50
2022-12-13T21:42:23.078Z,-8.40
2022-12-13T21:45:02.135Z,-8.40
2022-12-13T21:47:32.772Z,-8.50
2022-12-13T21:50:03.282Z,-8.40
2022-12-13T21:52:37.095Z,-8.50
2022-12-13T21:58:14.752Z,-8.40
2022-12-13T22:00:45.890Z,-8.40
2022-12-13T22:03:13.161Z,-8.40
2022-12-13T22:06:02.223Z,-8.40
2022-12-13T22:08:31.555Z,-8.50
2022-12-13T22:11:19.386Z,-8.40
2022-12-13T22:13:48.460Z,-8.40
2022-12-13T22:16:15.550Z,-8.40
2022-12-13T22:18:42.685Z,-8.40
2022-12-13T22:21:12.559Z,-8.40
2022-12-13T22:23:41.509Z,-8.40
2022-12-13T22:26:08.251Z,-8.40
2022-12-13T22:28:35.858Z,-8.40
2022-12-13T22:31:04.066Z,-8.40
2022-12-13T22:33:31.407Z,-8.40
2022-12-13T22:36:04.075Z,-8.40
2022-12-13T22:38:34.159Z,-8.40
2022-12-13T22:41:03.130Z,-8.40
2022-12-13T22:43:36.492Z,-8.40
2022-12-13T22:46:08.633Z,-8.40
2022-12-13T22:48:37.504Z,-8.50
2022-12-13T22:51:15.317Z,-8.50
2022-12-13T22:53:45.519Z,-8.60
2022-12-13T22:56:17.663Z,-8.60
2022-12-13T22:58:45.385Z,-8.60
2022-12-13T23:01:24.608Z,-8.50
2022-12-13T23:03:51.970Z,-8.50
2022-12-13T23:06:24.883Z,-8.40
2022-12-13T23:08:56.510Z,-8.50
2022-12-13T23:11:42.354Z,-8.40
2022-12-13T23:14:12.502Z,-8.50
2022-12-13T23:16:41.260Z,-8.40
2022-12-13T23:22:09.431Z,-8.50
2022-12-13T23:24:37.163Z,-8.50
2022-12-13T23:27:06.239Z,-8.50
2022-12-13T23:29:33.122Z,-8.50
2022-12-13T23:32:05.348Z,-8.60
2022-12-13T23:34:33.038Z,-8.70
2022-12-13T23:37:00.211Z,-8.70
2022-12-13T23:39:33.922Z,-8.60
2022-12-13T23:42:02.231Z,-8.70
2022-12-13T23:44:32.020Z,-8.60
2022-12-13T23:46:58.801Z,-8.60
2022-12-13T23:49:28.295Z,-8.70
2022-12-13T23:51:55.699Z,-8.70
2022-12-13T23:54:22.573Z,-8.70
2022-12-13T23:56:49.812Z,-8.70
2022-12-13T23:59:16.666Z,-8.70
